Time,TemperatureF,DewpointF,PressureIn,WindDirection,WindDirectionDegrees,WindSpeedMPH,WindSpeedGustMPH,Humidity,HourlyPrecipIn,Conditions,Clouds,dailyrainin,SoftwareType,DateUTC
2013-04-05 00:05:00,46.4,30.6,29.99,North,357,0.0,0.0,54,0.00,,,0.00,Wunderground v.1.15,2013-04-05 05:05:00,
2013-04-05 00:15:00,47.0,31.7,29.99,North,4,0.0,0.0,55,0.00,,,0.00,Wunderground v.1.15,2013-04-05 05:15:00,
2013-04-05 00:20:00,47.4,31.6,29.98,North,0,0.0,0.0,54,0.00,,,0.00,Wunderground v.1.15,2013-04-05 05:20:00,
2013-04-05 00:30:00,46.5,31.2,29.98,NNW,344,0.0,0.0,55,0.00,,,0.00,Wunderground v.1.15,2013-04-05 05:30:00,
2013-04-05 00:40:00,46.7,31.8,29.99,NNE,20,0.0,0.0,56,0.00,,,0.00,Wunderground v.1.15,2013-04-05 05:40:00,
2013-04-05 00:45:00,46.8,32.4,29.99,ENE,69,0.0,0.0,57,0.00,,,0.00,Wunderground v.1.15,2013-04-05 05:45:00,
2013-04-05 00:55:00,47.4,32.9,29.99,ENE,73,0.0,0.0,57,0.00,,,0.00,Wunderground v.1.15,2013-04-05 05:55:00,
2013-04-05 01:05:00,47.6,33.1,29.99,East,82,0.0,0.0,57,0.00,,,0.00,Wunderground v.1.15,2013-04-05 06:05:00,
2013-04-05 01:10:00,47.4,32.9,29.99,ENE,78,0.0,0.0,57,0.00,,,0.00,Wunderground v.1.15,2013-04-05 06:10:00,
2013-04-05 01:20:00,47.3,33.3,29.99,ENE,78,0.0,0.0,58,0.00,,,0.00,Wunderground v.1.15,2013-04-05 06:20:00,
2013-04-05 01:30:00,47.3,32.8,29.99,East,88,0.0,0.0,57,0.00,,,0.00,Wunderground v.1.15,2013-04-05 06:30:00,
2013-04-05 01:40:00,47.1,32.6,29.99,East,95,0.0,0.0,57,0.00,,,0.00,Wunderground v.1.15,2013-04-05 06:40:00,
2013-04-05 01:45:00,47.1,32.6,29.99,East,86,0.0,0.0,57,0.00,,,0.00,Wunderground v.1.15,2013-04-05 06:45:00,
2013-04-05 01:55:00,47.0,32.1,30.00,East,83,0.0,0.0,56,0.00,,,0.00,Wunderground v.1.15,2013-04-05 06:55:00,
2013-04-05 02:00:00,47.0,32.1,30.00,East,79,0.0,0.0,56,0.00,,,0.00,Wunderground v.1.15,2013-04-05 07:00:00,
2013-04-05 02:10:00,46.8,31.9,30.00,NE,48,0.0,0.0,56,0.00,,,0.00,Wunderground v.1.15,2013-04-05 07:10:00,
2013-04-05 02:15:00,46.5,32.1,30.00,ENE,58,0.0,0.0,57,0.00,,,0.00,Wunderground v.1.15,2013-04-05 07:15:00,
2013-04-05 02:25:00,46.4,32.4,30.00,ENE,58,0.0,0.0,58,0.00,,,0.00,Wunderground v.1.15,2013-04-05 07:25:00,
2013-04-05 02:35:00,46.5,32.5,29.99,ENE,58,0.0,0.0,58,0.00,,,0.00,Wunderground v.1.15,2013-04-05 07:35:00,
2013-04-05 02:45:00,46.4,32.4,29.99,NE,56,0.0,0.0,58,0.00,,,0.00,Wunderground v.1.15,2013-04-05 07:45:00,
2013-04-05 02:50:00,46.4,32.4,30.00,ENE,71,0.0,0.0,58,0.00,,,0.00,Wunderground v.1.15,2013-04-05 07:50:00,
2013-04-05 03:00:00,45.4,31.9,30.00,NE,54,0.0,0.0,59,0.00,,,0.00,Wunderground v.1.15,2013-04-05 08:00:00,
2013-04-05 03:10:00,45.7,32.2,30.00,ENE,61,0.0,0.0,59,0.00,,,0.00,Wunderground v.1.15,2013-04-05 08:10:00,
2013-04-05 03:20:00,45.7,32.2,30.00,ENE,71,0.0,0.0,59,0.00,,,0.00,Wunderground v.1.15,2013-04-05 08:20:00,
2013-04-05 03:30:00,45.5,32.4,30.00,NE,56,0.0,0.0,60,0.00,,,0.00,Wunderground v.1.15,2013-04-05 08:30:00,
2013-04-05 03:40:00,45.1,32.0,30.00,ENE,72,0.0,0.0,60,0.00,,,0.00,Wunderground v.1.15,2013-04-05 08:40:00,
2013-04-05 03:50:00,44.6,32.0,30.00,East,95,0.0,0.0,61,0.00,,,0.00,Wunderground v.1.15,2013-04-05 08:50:00,
2013-04-05 03:55:00,44.5,31.9,30.00,East,82,0.0,0.0,61,0.00,,,0.00,Wunderground v.1.15,2013-04-05 08:55:00,
2013-04-05 04:00:00,44.3,31.7,30.00,ESE,112,0.0,0.0,61,0.00,,,0.00,Wunderground v.1.15,2013-04-05 09:00:00,
2013-04-05 04:10:00,44.2,32.0,30.00,ENE,76,0.0,0.0,62,0.00,,,0.00,Wunderground v.1.15,2013-04-05 09:10:00,
2013-04-05 04:15:00,44.2,32.0,30.00,ENE,65,0.0,0.0,62,0.00,,,0.00,Wunderground v.1.15,2013-04-05 09:15:00,
2013-04-05 04:25:00,44.1,31.9,30.00,East,82,0.0,0.0,62,0.00,,,0.00,Wunderground v.1.15,2013-04-05 09:25:00,
2013-04-05 04:35:00,43.9,31.7,30.01,East,90,0.0,0.0,62,0.00,,,0.00,Wunderground v.1.15,2013-04-05 09:35:00,
2013-04-05 04:45:00,43.8,31.6,30.01,East,97,0.0,0.0,62,0.00,,,0.00,Wunderground v.1.15,2013-04-05 09:45:00,
2013-04-05 04:55:00,43.5,31.7,30.01,East,97,0.0,0.0,63,0.00,,,0.00,Wunderground v.1.15,2013-04-05 09:55:00,
2013-04-05 05:00:00,43.2,31.4,30.01,East,85,0.0,0.0,63,0.00,,,0.00,Wunderground v.1.15,2013-04-05 10:00:00,
2013-04-05 05:10:00,43.1,31.7,30.01,East,82,0.0,0.0,64,0.00,,,0.00,Wunderground v.1.15,2013-04-05 10:10:00,
2013-04-05 05:20:00,43.1,31.7,29.99,East,99,0.0,0.0,64,0.00,,,0.00,Wunderground v.1.15,2013-04-05 10:20:00,
2013-04-05 05:30:00,43.1,31.7,29.99,East,95,0.0,0.0,64,0.00,,,0.00,Wunderground v.1.15,2013-04-05 10:30:00,
2013-04-05 05:35:00,42.9,31.6,30.00,East,89,0.0,0.0,64,0.00,,,0.00,Wunderground v.1.15,2013-04-05 10:35:00,
2013-04-05 05:45:00,42.8,31.8,30.00,East,90,0.0,0.0,65,0.00,,,0.00,Wunderground v.1.15,2013-04-05 10:45:00,
2013-04-05 05:55:00,42.5,31.6,30.00,NE,48,0.0,0.0,65,0.00,,,0.00,Wunderground v.1.15,2013-04-05 10:55:00,
2013-04-05 06:05:00,42.1,31.2,30.01,ENE,75,0.0,0.0,65,0.00,,,0.00,Wunderground v.1.15,2013-04-05 11:05:00,
2013-04-05 06:15:00,41.6,30.7,30.01,NE,56,0.0,0.0,65,0.00,,,0.00,Wunderground v.1.15,2013-04-05 11:15:00,
2013-04-05 06:20:00,41.3,30.8,30.02,ENE,58,0.0,0.0,66,0.00,,,0.00,Wunderground v.1.15,2013-04-05 11:20:00,
2013-04-05 06:30:00,40.5,30.0,30.02,NE,56,0.0,0.0,66,0.00,,,0.00,Wunderground v.1.15,2013-04-05 11:30:00,
2013-04-05 06:40:00,40.1,30.0,30.04,NE,56,0.0,0.0,67,0.00,,,0.00,Wunderground v.1.15,2013-04-05 11:40:00,
2013-04-05 06:45:00,39.8,30.1,30.04,NE,56,0.0,0.0,68,0.00,,,0.00,Wunderground v.1.15,2013-04-05 11:45:00,
2013-04-05 06:50:00,39.6,29.9,30.04,NE,56,0.0,0.0,68,0.00,,,0.00,Wunderground v.1.15,2013-04-05 11:50:00,
2013-04-05 07:00:00,39.3,30.0,30.04,NE,56,0.0,0.0,69,0.00,,,0.00,Wunderground v.1.15,2013-04-05 12:00:00,
2013-04-05 07:10:00,39.3,30.0,30.05,NE,56,0.0,0.0,69,0.00,,,0.00,Wunderground v.1.15,2013-04-05 12:10:00,
2013-04-05 07:15:00,39.3,30.0,30.05,NE,56,0.0,0.0,69,0.00,,,0.00,Wunderground v.1.15,2013-04-05 12:15:00,
2013-04-05 07:25:00,39.3,30.0,30.05,ENE,62,0.0,0.0,69,0.00,,,0.00,Wunderground v.1.15,2013-04-05 12:25:00,
2013-04-05 07:35:00,39.5,30.2,30.06,ENE,73,0.0,0.0,69,0.00,,,0.00,Wunderground v.1.15,2013-04-05 12:35:00,
2013-04-05 07:45:00,40.3,30.9,30.06,ENE,66,0.0,0.0,69,0.00,,,0.00,Wunderground v.1.15,2013-04-05 12:45:00,
2013-04-05 07:55:00,41.1,31.7,30.05,East,85,0.0,0.0,69,0.00,,,0.00,Wunderground v.1.15,2013-04-05 12:55:00,
2013-04-05 08:00:00,41.3,31.9,30.05,East,85,0.0,0.0,69,0.00,,,0.00,Wunderground v.1.15,2013-04-05 13:00:00,
2013-04-05 08:10:00,41.9,32.1,30.04,East,79,0.0,0.0,68,0.00,,,0.00,Wunderground v.1.15,2013-04-05 13:10:00,
2013-04-05 08:15:00,42.3,32.1,30.04,East,82,0.0,0.0,67,0.00,,,0.00,Wunderground v.1.15,2013-04-05 13:15:00,
2013-04-05 08:25:00,43.1,32.1,30.06,ESE,102,0.0,0.0,65,0.00,,,0.00,Wunderground v.1.15,2013-04-05 13:25:00,
2013-04-05 08:35:00,44.1,32.7,30.07,ESE,107,0.0,0.0,64,0.00,,,0.00,Wunderground v.1.15,2013-04-05 13:35:00,
2013-04-05 08:45:00,44.9,33.1,30.07,NNE,18,0.0,0.0,63,0.00,,,0.00,Wunderground v.1.15,2013-04-05 13:45:00,
2013-04-05 08:50:00,45.2,33.3,30.07,NNE,31,0.0,0.0,63,0.00,,,0.00,Wunderground v.1.15,2013-04-05 13:50:00,
2013-04-05 09:00:00,46.0,33.7,30.07,SE,124,0.0,0.0,62,0.00,,,0.00,Wunderground v.1.15,2013-04-05 14:00:00,
2013-04-05 09:10:00,46.4,33.7,30.05,North,0,0.0,0.0,61,0.00,,,0.00,Wunderground v.1.15,2013-04-05 14:10:00,
2013-04-05 09:15:00,46.7,33.5,30.05,East,90,0.0,0.0,60,0.00,,,0.00,Wunderground v.1.15,2013-04-05 14:15:00,
2013-04-05 09:20:00,47.1,33.5,30.05,SE,126,0.0,0.0,59,0.00,,,0.00,Wunderground v.1.15,2013-04-05 14:20:00,
2013-04-05 09:30:00,47.9,33.8,30.05,SE,128,0.0,0.0,58,0.00,,,0.00,Wunderground v.1.15,2013-04-05 14:30:00,
2013-04-05 09:40:00,48.5,33.9,30.04,ESE,119,0.0,0.0,57,0.00,,,0.00,Wunderground v.1.15,2013-04-05 14:40:00,
2013-04-05 09:50:00,49.4,33.9,30.04,ESE,103,0.0,0.0,55,0.00,,,0.00,Wunderground v.1.15,2013-04-05 14:50:00,
2013-04-05 10:00:00,50.1,34.1,30.04,SE,133,0.0,0.0,54,0.00,,,0.00,Wunderground v.1.15,2013-04-05 15:00:00,
2013-04-05 10:10:00,50.2,34.2,30.02,ESE,109,0.0,0.0,54,0.00,,,0.00,Wunderground v.1.15,2013-04-05 15:10:00,
2013-04-05 10:15:00,50.5,34.9,30.02,East,97,0.0,0.0,55,0.00,,,0.00,Wunderground v.1.15,2013-04-05 15:15:00,
2013-04-05 10:25:00,51.1,35.0,30.02,East,97,0.0,0.0,54,0.00,,,0.00,Wunderground v.1.15,2013-04-05 15:25:00,
2013-04-05 10:35:00,52.0,34.9,30.02,SE,128,0.0,0.0,52,0.00,,,0.00,Wunderground v.1.15,2013-04-05 15:35:00,
2013-04-05 10:45:00,52.5,35.4,30.02,SSE,147,0.0,0.0,52,0.00,,,0.00,Wunderground v.1.15,2013-04-05 15:45:00,
2013-04-05 10:50:00,52.5,35.4,30.02,SE,134,0.0,0.0,52,0.00,,,0.00,Wunderground v.1.15,2013-04-05 15:50:00,
2013-04-05 11:00:00,53.3,35.6,30.02,ESE,123,0.0,0.0,51,0.00,,,0.00,Wunderground v.1.15,2013-04-05 16:00:00,
2013-04-05 11:05:00,53.9,35.7,30.01,ESE,114,0.0,0.0,50,0.00,,,0.00,Wunderground v.1.15,2013-04-05 16:05:00,
2013-04-05 11:15:00,54.7,35.9,30.01,ESE,117,0.0,0.0,49,0.00,,,0.00,Wunderground v.1.15,2013-04-05 16:15:00,
2013-04-05 11:25:00,55.0,36.2,30.01,SE,141,0.0,0.0,49,0.00,,,0.00,Wunderground v.1.15,2013-04-05 16:25:00,
2013-04-05 11:35:00,56.5,36.5,30.01,SSE,157,0.0,0.0,47,0.00,,,0.00,Wunderground v.1.15,2013-04-05 16:35:00,
2013-04-05 11:45:00,56.6,36.0,30.01,SSE,150,0.0,0.0,46,0.00,,,0.00,Wunderground v.1.15,2013-04-05 16:45:00,
2013-04-05 11:55:00,57.8,36.6,30.01,South,185,0.0,0.0,45,0.00,,,0.00,Wunderground v.1.15,2013-04-05 16:55:00,
2013-04-05 12:05:00,58.4,37.1,30.00,ESE,107,0.0,0.0,45,0.00,,,0.00,Wunderground v.1.15,2013-04-05 17:05:00,
2013-04-05 12:15:00,59.2,36.7,30.00,SSE,151,0.0,0.0,43,0.00,,,0.00,Wunderground v.1.15,2013-04-05 17:15:00,
2013-04-05 12:25:00,59.9,37.3,29.99,SSE,155,0.0,0.0,43,0.00,,,0.00,Wunderground v.1.15,2013-04-05 17:25:00,
2013-04-05 12:35:00,60.5,37.3,29.98,SSE,154,0.0,0.0,42,0.00,,,0.00,Wunderground v.1.15,2013-04-05 17:35:00,
2013-04-05 12:45:00,60.7,37.5,29.98,SSE,157,0.0,0.0,42,0.00,,,0.00,Wunderground v.1.15,2013-04-05 17:45:00,
2013-04-05 12:55:00,61.5,37.6,29.96,SSE,162,0.0,0.0,41,0.00,,,0.00,Wunderground v.1.15,2013-04-05 17:55:00,
2013-04-05 13:00:00,62.1,38.1,29.96,SE,127,0.0,0.0,41,0.00,,,0.00,Wunderground v.1.15,2013-04-05 18:00:00,
2013-04-05 13:10:00,62.6,37.3,29.94,ESE,116,0.0,0.0,39,0.00,,,0.00,Wunderground v.1.15,2013-04-05 18:10:00,
2013-04-05 13:20:00,63.5,38.1,29.93,South,176,0.0,0.0,39,0.00,,,0.00,Wunderground v.1.15,2013-04-05 18:20:00,
2013-04-05 13:30:00,63.1,37.1,29.93,ESE,120,0.0,0.0,38,0.00,,,0.00,Wunderground v.1.15,2013-04-05 18:30:00,
2013-04-05 13:40:00,63.9,37.8,29.92,SE,136,0.0,0.0,38,0.00,,,0.00,Wunderground v.1.15,2013-04-05 18:40:00,
2013-04-05 13:45:00,64.3,38.8,29.92,South,191,0.0,0.0,39,0.00,,,0.00,Wunderground v.1.15,2013-04-05 18:45:00,
2013-04-05 13:55:00,64.7,37.8,29.91,South,179,0.0,0.0,37,0.00,,,0.00,Wunderground v.1.15,2013-04-05 18:55:00,
2013-04-05 14:05:00,65.5,37.1,29.90,SSE,160,0.0,0.0,35,0.00,,,0.00,Wunderground v.1.15,2013-04-05 19:05:00,
2013-04-05 14:15:00,66.0,37.5,29.90,SSE,155,0.0,0.0,35,0.00,,,0.00,Wunderground v.1.15,2013-04-05 19:15:00,
2013-04-05 14:25:00,66.1,36.9,29.89,SSE,150,0.0,0.0,34,0.00,,,0.00,Wunderground v.1.15,2013-04-05 19:25:00,
2013-04-05 14:35:00,67.1,37.0,29.88,SSW,196,0.0,0.0,33,0.00,,,0.00,Wunderground v.1.15,2013-04-05 19:35:00,
2013-04-05 14:45:00,67.4,36.5,29.88,SSE,150,0.0,0.0,32,0.00,,,0.00,Wunderground v.1.15,2013-04-05 19:45:00,
2013-04-05 14:55:00,67.8,37.6,29.87,SSW,199,0.0,0.0,33,0.00,,,0.00,Wunderground v.1.15,2013-04-05 19:55:00,
2013-04-05 15:05:00,67.8,36.8,29.86,SSE,167,0.0,0.0,32,0.00,,,0.00,Wunderground v.1.15,2013-04-05 20:05:00,
2013-04-05 15:15:00,68.3,38.8,29.86,SSE,155,0.0,0.0,34,0.00,,,0.00,Wunderground v.1.15,2013-04-05 20:15:00,
2013-04-05 15:25:00,68.4,37.4,29.85,SSE,150,0.0,0.0,32,0.00,,,0.00,Wunderground v.1.15,2013-04-05 20:25:00,
2013-04-05 15:35:00,68.6,37.5,29.84,SSE,157,0.0,0.0,32,0.00,,,0.00,Wunderground v.1.15,2013-04-05 20:35:00,
2013-04-05 15:40:00,69.3,36.5,29.84,South,184,0.0,0.0,30,0.00,,,0.00,Wunderground v.1.15,2013-04-05 20:40:00,
2013-04-05 15:45:00,69.1,37.2,29.84,South,176,0.0,0.0,31,0.00,,,0.00,Wunderground v.1.15,2013-04-05 20:45:00,
2013-04-05 15:55:00,69.6,36.8,29.82,South,181,0.0,0.0,30,0.00,,,0.00,Wunderground v.1.15,2013-04-05 20:55:00,
2013-04-05 16:05:00,69.3,35.7,29.81,South,185,0.0,0.0,29,0.00,,,0.00,Wunderground v.1.15,2013-04-05 21:05:00,
2013-04-05 16:15:00,68.9,36.2,29.81,South,184,0.0,0.0,30,0.00,,,0.00,Wunderground v.1.15,2013-04-05 21:15:00,
2013-04-05 16:25:00,69.6,36.8,29.80,South,172,0.0,0.0,30,0.00,,,0.00,Wunderground v.1.15,2013-04-05 21:25:00,
2013-04-05 16:35:00,69.6,35.9,29.79,SE,144,0.0,0.0,29,0.00,,,0.00,Wunderground v.1.15,2013-04-05 21:35:00,
2013-04-05 16:40:00,69.9,36.2,29.79,South,169,0.0,0.0,29,0.00,,,0.00,Wunderground v.1.15,2013-04-05 21:40:00,
2013-04-05 16:50:00,69.8,36.1,29.78,SSW,192,0.0,0.0,29,0.00,,,0.00,Wunderground v.1.15,2013-04-05 21:50:00,
2013-04-05 17:00:00,69.9,36.2,29.78,SSW,198,0.0,0.0,29,0.00,,,0.00,Wunderground v.1.15,2013-04-05 22:00:00,
2013-04-05 17:05:00,69.3,36.5,29.77,SSE,148,0.0,0.0,30,0.00,,,0.00,Wunderground v.1.15,2013-04-05 22:05:00,
2013-04-05 17:15:00,68.6,36.7,29.77,South,191,0.0,0.0,31,0.00,,,0.00,Wunderground v.1.15,2013-04-05 22:15:00,
2013-04-05 17:25:00,68.8,37.7,29.77,South,174,0.0,0.0,32,0.00,,,0.00,Wunderground v.1.15,2013-04-05 22:25:00,
2013-04-05 17:35:00,68.4,38.2,29.77,South,186,0.0,0.0,33,0.00,,,0.00,Wunderground v.1.15,2013-04-05 22:35:00,
2013-04-05 17:40:00,68.4,38.2,29.77,SSE,161,0.0,0.0,33,0.00,,,0.00,Wunderground v.1.15,2013-04-05 22:40:00,
2013-04-05 17:50:00,67.8,36.8,29.76,South,181,0.0,0.0,32,0.00,,,0.00,Wunderground v.1.15,2013-04-05 22:50:00,
2013-04-05 18:00:00,67.6,36.7,29.76,SSE,164,0.0,0.0,32,0.00,,,0.00,Wunderground v.1.15,2013-04-05 23:00:00,
2013-04-05 18:05:00,67.4,36.5,29.75,SSE,164,0.0,0.0,32,0.00,,,0.00,Wunderground v.1.15,2013-04-05 23:05:00,
2013-04-05 18:15:00,67.1,36.2,29.75,SSE,151,0.0,0.0,32,0.00,,,0.00,Wunderground v.1.15,2013-04-05 23:15:00,
2013-04-05 18:20:00,67.1,37.0,29.76,South,178,0.0,0.0,33,0.00,,,0.00,Wunderground v.1.15,2013-04-05 23:20:00,
2013-04-05 18:30:00,66.8,36.0,29.76,South,169,0.0,0.0,32,0.00,,,0.00,Wunderground v.1.15,2013-04-05 23:30:00,
2013-04-05 18:40:00,66.4,35.6,29.75,SSE,160,0.0,0.0,32,0.00,,,0.00,Wunderground v.1.15,2013-04-05 23:40:00,
2013-04-05 18:45:00,66.3,35.5,29.75,SSW,195,0.0,0.0,32,0.00,,,0.00,Wunderground v.1.15,2013-04-05 23:45:00,
2013-04-05 18:55:00,66.0,35.3,29.76,SSE,160,0.0,0.0,32,0.00,,,0.00,Wunderground v.1.15,2013-04-05 23:55:00,
2013-04-05 19:05:00,65.5,35.6,29.76,South,186,0.0,0.0,33,0.00,,,0.00,Wunderground v.1.15,2013-04-06 00:05:00,
2013-04-05 19:15:00,65.2,36.1,29.76,South,186,0.0,0.0,34,0.00,,,0.00,Wunderground v.1.15,2013-04-06 00:15:00,
2013-04-05 19:25:00,64.7,36.4,29.75,South,182,0.0,0.0,35,0.00,,,0.00,Wunderground v.1.15,2013-04-06 00:25:00,
2013-04-05 19:35:00,64.0,36.5,29.75,SSE,155,0.0,0.0,36,0.00,,,0.00,Wunderground v.1.15,2013-04-06 00:35:00,
2013-04-05 19:40:00,63.9,36.4,29.75,SSE,151,0.0,0.0,36,0.00,,,0.00,Wunderground v.1.15,2013-04-06 00:40:00,
2013-04-05 19:50:00,63.4,36.7,29.74,SSE,161,0.0,0.0,37,0.00,,,0.00,Wunderground v.1.15,2013-04-06 00:50:00,
2013-04-05 19:55:00,63.2,37.2,29.74,SE,138,0.0,0.0,38,0.00,,,0.00,Wunderground v.1.15,2013-04-06 00:55:00,
2013-04-05 20:05:00,62.9,37.5,29.74,SSE,168,0.0,0.0,39,0.00,,,0.00,Wunderground v.1.15,2013-04-06 01:05:00,
2013-04-05 20:15:00,62.6,37.9,29.74,SSE,148,0.0,0.0,40,0.00,,,0.00,Wunderground v.1.15,2013-04-06 01:15:00,
2013-04-05 20:20:00,62.6,37.9,29.74,SE,143,0.0,0.0,40,0.00,,,0.00,Wunderground v.1.15,2013-04-06 01:20:00,
2013-04-05 20:30:00,62.3,38.3,29.74,SSE,152,0.0,0.0,41,0.00,,,0.00,Wunderground v.1.15,2013-04-06 01:30:00,
2013-04-05 20:40:00,62.0,38.0,29.73,SE,144,0.0,0.0,41,0.00,,,0.00,Wunderground v.1.15,2013-04-06 01:40:00,
2013-04-05 20:50:00,61.6,37.7,29.73,SSE,154,0.0,0.0,41,0.00,,,0.00,Wunderground v.1.15,2013-04-06 01:50:00,
2013-04-05 20:55:00,61.5,38.2,29.73,SSE,158,0.0,0.0,42,0.00,,,0.00,Wunderground v.1.15,2013-04-06 01:55:00,
2013-04-05 21:00:00,61.3,38.0,29.73,SSE,160,0.0,0.0,42,0.00,,,0.00,Wunderground v.1.15,2013-04-06 02:00:00,
2013-04-05 21:10:00,61.0,37.1,29.73,SSW,199,0.0,0.0,41,0.00,,,0.00,Wunderground v.1.15,2013-04-06 02:10:00,
2013-04-05 21:15:00,61.0,37.1,29.73,SE,140,0.0,0.0,41,0.00,,,0.00,Wunderground v.1.15,2013-04-06 02:15:00,
2013-04-05 21:25:00,60.9,37.0,29.72,SSE,155,0.0,0.0,41,0.00,,,0.00,Wunderground v.1.15,2013-04-06 02:25:00,
2013-04-05 21:35:00,60.7,36.8,29.72,SSE,148,0.0,0.0,41,0.00,,,0.00,Wunderground v.1.15,2013-04-06 02:35:00,
2013-04-05 21:40:00,60.5,36.7,29.72,SE,144,0.0,0.0,41,0.00,,,0.00,Wunderground v.1.15,2013-04-06 02:40:00,
2013-04-05 21:50:00,60.4,37.2,29.72,SSE,162,0.0,0.0,42,0.00,,,0.00,Wunderground v.1.15,2013-04-06 02:50:00,
2013-04-05 22:00:00,60.2,37.0,29.72,SE,134,0.0,0.0,42,0.00,,,0.00,Wunderground v.1.15,2013-04-06 03:00:00,
2013-04-05 22:10:00,60.2,37.6,29.71,South,191,0.0,0.0,43,0.00,,,0.00,Wunderground v.1.15,2013-04-06 03:10:00,
2013-04-05 22:20:00,60.1,38.1,29.70,SE,133,0.0,0.0,44,0.00,,,0.00,Wunderground v.1.15,2013-04-06 03:20:00,
2013-04-05 22:30:00,60.1,38.7,29.70,South,182,0.0,0.0,45,0.00,,,0.00,Wunderground v.1.15,2013-04-06 03:30:00,
2013-04-05 22:40:00,59.9,38.5,29.70,SE,124,0.0,0.0,45,0.00,,,0.00,Wunderground v.1.15,2013-04-06 03:40:00,
2013-04-05 22:50:00,59.8,39.0,29.69,SSE,168,0.0,0.0,46,0.00,,,0.00,Wunderground v.1.15,2013-04-06 03:50:00,
2013-04-05 23:00:00,59.5,38.7,29.69,South,179,0.0,0.0,46,0.00,,,0.00,Wunderground v.1.15,2013-04-06 04:00:00,
2013-04-05 23:05:00,59.5,39.2,29.68,SSE,160,0.0,0.0,47,0.00,,,0.00,Wunderground v.1.15,2013-04-06 04:05:00,
2013-04-05 23:10:00,59.3,39.1,29.68,SSE,151,0.0,0.0,47,0.00,,,0.00,Wunderground v.1.15,2013-04-06 04:10:00,
2013-04-05 23:15:00,59.3,39.1,29.68,SE,134,0.0,0.0,47,0.00,,,0.00,Wunderground v.1.15,2013-04-06 04:15:00,
2013-04-05 23:20:00,59.2,39.0,29.67,SSE,151,0.0,0.0,47,0.00,,,0.00,Wunderground v.1.15,2013-04-06 04:20:00,
2013-04-05 23:25:00,59.0,39.3,29.67,SSE,165,0.0,0.0,48,0.00,,,0.00,Wunderground v.1.15,2013-04-06 04:25:00,
2013-04-05 23:30:00,58.9,39.2,29.67,SSE,167,0.0,0.0,48,0.00,,,0.00,Wunderground v.1.15,2013-04-06 04:30:00,
2013-04-05 23:35:00,58.7,39.0,29.67,South,176,0.0,0.0,48,0.00,,,0.00,Wunderground v.1.15,2013-04-06 04:35:00,
2013-04-05 23:45:00,58.4,39.3,29.67,SSE,151,0.0,0.0,49,0.00,,,0.00,Wunderground v.1.15,2013-04-06 04:45:00,
2013-04-05 23:55:00,58.1,39.0,29.66,SSE,158,0.0,0.0,49,0.00,,,0.00,Wunderground v.1.15,2013-04-06 04:55:00,